createdAt,value
2023-04-29T00:01:39.873Z,9.18
2023-04-29T00:04:48.175Z,9.14
2023-04-29T00:07:57.891Z,9.16
2023-04-29T00:11:06.189Z,9.12
2023-04-29T00:14:14.461Z,8.99
2023-04-29T00:17:22.851Z,8.99
2023-04-29T00:20:30.991Z,8.97
2023-04-29T00:23:40.981Z,9.02
2023-04-29T00:26:49.393Z,9.09
2023-04-29T00:29:57.941Z,9.08
2023-04-29T00:33:06.149Z,9.06
2023-04-29T00:36:15.681Z,9.03
2023-04-29T00:39:25.732Z,8.98
2023-04-29T00:42:34.348Z,9.11
2023-04-29T00:45:42.495Z,9.16
2023-04-29T00:48:51.504Z,9.26
2023-04-29T00:52:02.270Z,9.32
2023-04-29T00:55:13.949Z,9.21
2023-04-29T00:58:23.981Z,9.16
2023-04-29T01:01:32.451Z,9.21
2023-04-29T01:04:40.637Z,9.17
2023-04-29T01:08:05.501Z,9.32
2023-04-29T01:11:20.295Z,9.35
2023-04-29T01:14:30.137Z,9.42
2023-04-29T01:17:45.524Z,9.45
2023-04-29T01:20:54.908Z,9.54
2023-04-29T01:24:04.573Z,9.48
2023-04-29T01:27:29.628Z,9.60
2023-04-29T01:30:58.188Z,9.51
2023-04-29T01:34:14.790Z,9.65
2023-04-29T01:37:39.947Z,9.54
2023-04-29T01:41:00.641Z,9.67
2023-04-29T01:44:16.566Z,9.57
2023-04-29T01:47:26.063Z,9.55
2023-04-29T01:50:35.660Z,9.53
2023-04-29T01:53:52.635Z,9.53
2023-04-29T01:57:02.305Z,9.63
2023-04-29T02:00:32.015Z,9.55
2023-04-29T02:03:41.439Z,9.66
2023-04-29T02:06:54.341Z,9.62
2023-04-29T02:10:02.700Z,9.60
2023-04-29T02:13:16.447Z,9.52
2023-04-29T02:16:25.422Z,9.56
2023-04-29T02:19:38.438Z,9.60
2023-04-29T02:22:47.232Z,9.68
2023-04-29T02:25:56.104Z,9.76
2023-04-29T02:29:07.638Z,9.85
2023-04-29T02:32:16.034Z,9.92
2023-04-29T02:35:24.308Z,9.87
2023-04-29T02:38:32.788Z,9.79
2023-04-29T02:41:42.138Z,9.85
2023-04-29T02:44:54.495Z,9.74
2023-04-29T02:48:03.294Z,9.74
2023-04-29T02:51:11.848Z,9.89
2023-04-29T02:54:20.561Z,10.01
2023-04-29T02:57:29.732Z,9.99
2023-04-29T03:00:41.585Z,9.86
2023-04-29T03:03:50.557Z,9.92
2023-04-29T03:06:59.594Z,9.78
2023-04-29T03:10:10.504Z,9.62
2023-04-29T03:13:20.456Z,9.63
2023-04-29T03:16:30.384Z,9.82
2023-04-29T03:19:38.547Z,9.73
2023-04-29T03:22:46.684Z,9.72
2023-04-29T03:25:55.756Z,9.83
2023-04-29T03:29:04.297Z,9.95
2023-04-29T03:32:13.937Z,9.97
2023-04-29T03:35:22.697Z,10.10
2023-04-29T03:38:51.042Z,10.13
2023-04-29T03:41:59.824Z,10.19
2023-04-29T03:45:10.211Z,10.20
2023-04-29T03:48:21.353Z,10.30
2023-04-29T03:51:29.754Z,10.15
2023-04-29T03:54:47.086Z,10.35
2023-04-29T03:57:55.409Z,10.30
2023-04-29T04:01:04.317Z,10.31
2023-04-29T04:04:23.051Z,10.22
2023-04-29T04:07:32.375Z,10.19
2023-04-29T04:11:06.855Z,10.30
2023-04-29T04:14:22.435Z,10.28
2023-04-29T04:17:31.914Z,10.35
2023-04-29T04:20:42.002Z,10.37
2023-04-29T04:23:51.335Z,10.45
2023-04-29T04:27:03.523Z,10.44
2023-04-29T04:30:17.423Z,10.44
2023-04-29T04:33:27.391Z,10.50
2023-04-29T04:36:36.959Z,10.54
2023-04-29T04:39:45.526Z,10.61
2023-04-29T04:42:56.548Z,10.85
2023-04-29T04:46:12.612Z,10.81
2023-04-29T04:49:25.930Z,11.03
2023-04-29T04:52:36.249Z,11.09
2023-04-29T04:55:56.766Z,11.09
2023-04-29T04:59:05.601Z,11.19
2023-04-29T05:02:15.732Z,11.23
2023-04-29T05:05:23.871Z,11.27
2023-04-29T05:08:34.365Z,11.39
2023-04-29T05:11:45.064Z,11.48
2023-04-29T05:14:55.635Z,11.57
2023-04-29T05:18:04.337Z,11.55
2023-04-29T05:21:13.103Z,11.63
2023-04-29T05:24:23.669Z,11.72
2023-04-29T05:27:32.949Z,11.93
2023-04-29T05:30:42.163Z,12.06
2023-04-29T05:33:50.643Z,12.09
2023-04-29T05:36:59.394Z,12.06
2023-04-29T05:40:11.657Z,12.23
2023-04-29T05:43:20.920Z,12.47
2023-04-29T05:46:29.430Z,12.67
2023-04-29T05:49:37.679Z,13.10
2023-04-29T05:52:46.222Z,13.22
2023-04-29T05:55:56.058Z,13.12
2023-04-29T05:59:04.435Z,13.49
2023-04-29T06:02:14.660Z,14.39
2023-04-29T06:05:24.397Z,15.22
2023-04-29T06:08:56.144Z,16.90
2023-04-29T06:12:09.864Z,17.00
2023-04-29T06:15:18.199Z,16.31
2023-04-29T06:18:27.170Z,16.82
2023-04-29T06:21:35.617Z,17.56
2023-04-29T06:24:44.049Z,17.11
2023-04-29T06:27:58.472Z,16.10
2023-04-29T06:31:09.599Z,17.95
2023-04-29T06:34:18.202Z,19.76
2023-04-29T06:37:42.694Z,20.38
2023-04-29T06:41:08.097Z,18.36
2023-04-29T06:44:38.212Z,17.65
2023-04-29T06:48:16.029Z,16.12
2023-04-29T06:51:29.460Z,15.27
2023-04-29T06:54:39.703Z,15.98
2023-04-29T06:57:48.158Z,17.64
2023-04-29T07:00:57.812Z,16.93
2023-04-29T07:04:06.929Z,18.07
2023-04-29T07:07:15.187Z,17.74
2023-04-29T07:10:23.445Z,17.01
2023-04-29T07:13:31.828Z,15.55
2023-04-29T07:16:41.920Z,15.40
2023-04-29T07:19:53.515Z,14.67
2023-04-29T07:23:02.245Z,14.60
2023-04-29T07:26:13.204Z,14.10
2023-04-29T07:29:21.841Z,14.66
2023-04-29T07:32:32.897Z,14.49
2023-04-29T07:35:44.851Z,14.89
2023-04-29T07:38:54.188Z,15.64
2023-04-29T07:42:03.162Z,16.95
2023-04-29T07:45:15.028Z,19.23
2023-04-29T07:48:27.484Z,20.05
2023-04-29T07:51:35.982Z,18.61
2023-04-29T07:54:44.373Z,18.59
2023-04-29T07:57:54.288Z,20.77
2023-04-29T08:01:08.701Z,20.46
2023-04-29T08:04:19.262Z,18.68
2023-04-29T08:07:31.285Z,19.18
2023-04-29T08:10:43.166Z,19.22
2023-04-29T08:13:51.880Z,20.87
2023-04-29T08:17:00.275Z,18.85
2023-04-29T08:20:11.808Z,17.50
2023-04-29T08:23:20.045Z,18.09
2023-04-29T08:26:28.355Z,20.18
2023-04-29T08:29:37.017Z,21.54
2023-04-29T08:32:45.589Z,19.95
2023-04-29T08:36:03.559Z,17.60
2023-04-29T08:39:11.787Z,16.83
2023-04-29T08:42:34.187Z,17.43
2023-04-29T08:45:43.672Z,17.42
2023-04-29T08:48:53.132Z,17.03
2023-04-29T08:52:02.766Z,17.53
2023-04-29T08:55:11.538Z,16.23
2023-04-29T08:58:20.080Z,15.67
2023-04-29T09:01:31.014Z,15.35
2023-04-29T09:04:49.078Z,15.40
2023-04-29T09:08:03.183Z,15.77
2023-04-29T09:11:13.162Z,16.71
2023-04-29T09:14:23.892Z,17.78
2023-04-29T09:17:54.871Z,18.55
2023-04-29T09:21:16.140Z,18.93
2023-04-29T09:24:29.713Z,19.05
2023-04-29T09:27:37.953Z,18.84
2023-04-29T09:30:50.689Z,16.89
2023-04-29T09:33:59.339Z,17.57
2023-04-29T09:37:27.666Z,18.24
2023-04-29T09:40:50.125Z,18.17
2023-04-29T09:44:06.701Z,18.31
2023-04-29T09:47:18.771Z,18.40
2023-04-29T09:50:27.288Z,18.18
2023-04-29T09:53:38.200Z,17.21
2023-04-29T09:56:53.112Z,17.29
2023-04-29T10:00:01.569Z,16.62
2023-04-29T10:03:10.334Z,16.89
2023-04-29T10:06:19.190Z,16.91
2023-04-29T10:09:27.806Z,17.84
2023-04-29T10:12:39.654Z,18.24
2023-04-29T10:16:01.168Z,19.54
2023-04-29T10:19:16.692Z,20.36
2023-04-29T10:22:44.075Z,20.27
2023-04-29T10:25:56.529Z,19.61
2023-04-29T10:29:10.364Z,17.40
2023-04-29T10:32:19.696Z,16.09
2023-04-29T10:35:28.591Z,15.75
2023-04-29T10:38:42.190Z,16.17
2023-04-29T10:41:52.816Z,17.37
2023-04-29T10:45:36.344Z,18.04
2023-04-29T10:48:46.961Z,17.41
2023-04-29T10:52:05.751Z,16.85
2023-04-29T10:55:14.344Z,16.81
2023-04-29T10:58:37.912Z,16.65
2023-04-29T11:01:51.483Z,16.52
2023-04-29T11:05:10.888Z,16.76
2023-04-29T11:08:26.607Z,17.02
2023-04-29T11:12:03.955Z,16.99
2023-04-29T11:15:13.441Z,16.74
2023-04-29T11:18:25.039Z,16.40
2023-04-29T11:21:36.361Z,16.57
2023-04-29T11:24:52.831Z,16.71
2023-04-29T11:28:02.357Z,17.29
2023-04-29T11:31:11.116Z,17.41
2023-04-29T11:34:27.772Z,17.73
2023-04-29T11:37:37.379Z,18.55
2023-04-29T11:40:53.283Z,18.16
2023-04-29T11:44:03.732Z,16.92
2023-04-29T11:47:12.621Z,16.74
2023-04-29T11:50:22.916Z,16.89
2023-04-29T11:53:31.613Z,16.84
2023-04-29T11:56:40.819Z,16.83
2023-04-29T11:59:49.088Z,17.04
2023-04-29T12:02:57.890Z,17.43
2023-04-29T12:06:08.480Z,17.93
2023-04-29T12:09:19.404Z,18.06
2023-04-29T12:12:29.268Z,18.01
2023-04-29T12:15:40.339Z,18.10
2023-04-29T12:18:49.201Z,18.01
2023-04-29T12:22:02.118Z,16.91
2023-04-29T12:25:12.101Z,16.52
2023-04-29T12:28:23.494Z,17.30
2023-04-29T12:31:36.485Z,17.35
2023-04-29T12:34:48.089Z,17.69
2023-04-29T12:38:00.690Z,17.04
2023-04-29T12:41:09.225Z,17.04
2023-04-29T12:44:18.026Z,17.11
2023-04-29T12:47:34.759Z,17.64
2023-04-29T12:50:43.380Z,17.30
2023-04-29T12:53:53.310Z,17.15
2023-04-29T12:57:02.827Z,17.11
2023-04-29T13:00:13.466Z,16.97
2023-04-29T13:03:22.419Z,16.84
2023-04-29T13:06:32.390Z,16.84
2023-04-29T13:09:42.332Z,16.56
2023-04-29T13:12:50.904Z,17.11
2023-04-29T13:15:59.345Z,17.13
2023-04-29T13:19:24.602Z,17.30
2023-04-29T13:22:37.359Z,17.42
2023-04-29T13:25:48.397Z,17.00
2023-04-29T13:28:56.861Z,17.27
2023-04-29T13:32:06.872Z,17.07
2023-04-29T13:35:15.287Z,16.88
2023-04-29T13:38:23.811Z,17.04
2023-04-29T13:41:35.546Z,17.37
2023-04-29T13:44:52.175Z,17.47
2023-04-29T13:54:58.503Z,17.23
2023-04-29T14:01:37.860Z,16.90
2023-04-29T14:04:37.840Z,17.34
2023-04-29T14:07:47.285Z,16.91
2023-04-29T14:10:56.954Z,16.53
2023-04-29T14:14:08.587Z,16.86
2023-04-29T14:17:17.878Z,16.96
2023-04-29T14:20:27.009Z,17.12
2023-04-29T14:23:36.147Z,17.31
2023-04-29T14:26:45.510Z,17.79
2023-04-29T14:29:55.538Z,18.48
2023-04-29T14:33:04.112Z,17.43
2023-04-29T14:36:12.525Z,16.86
2023-04-29T14:39:21.269Z,17.26
2023-04-29T14:42:29.816Z,17.70
2023-04-29T14:45:40.760Z,17.45
2023-04-29T14:48:49.420Z,17.76
2023-04-29T14:51:57.926Z,17.32
2023-04-29T14:55:07.925Z,17.64
2023-04-29T14:58:16.470Z,17.97
2023-04-29T15:01:28.256Z,17.44
2023-04-29T15:04:38.071Z,17.09
2023-04-29T15:07:46.635Z,17.10
2023-04-29T15:10:55.166Z,16.65
2023-04-29T15:14:04.086Z,16.83
2023-04-29T15:17:14.725Z,17.07
2023-04-29T15:20:23.556Z,17.20
2023-04-29T15:23:33.333Z,17.37
2023-04-29T15:26:42.136Z,17.58
2023-04-29T15:29:53.300Z,18.07
2023-04-29T15:33:04.577Z,17.48
2023-04-29T15:36:13.270Z,17.00
2023-04-29T15:39:21.693Z,17.24
2023-04-29T15:42:31.270Z,17.57
2023-04-29T15:45:39.852Z,16.63
2023-04-29T15:48:49.718Z,15.96
2023-04-29T15:51:58.111Z,15.70
2023-04-29T15:55:07.645Z,15.68
2023-04-29T15:58:16.148Z,15.76
2023-04-29T16:01:24.710Z,15.72
2023-04-29T16:04:34.571Z,15.97
2023-04-29T16:07:43.631Z,16.47
2023-04-29T16:10:52.132Z,16.90
2023-04-29T16:14:00.600Z,17.36
2023-04-29T16:17:09.097Z,17.42
2023-04-29T16:20:19.321Z,16.75
2023-04-29T16:23:27.922Z,15.98
2023-04-29T16:26:37.347Z,15.89
2023-04-29T16:29:45.809Z,15.65
2023-04-29T16:32:54.283Z,16.08
2023-04-29T16:36:05.279Z,16.23
2023-04-29T16:39:13.850Z,16.01
2023-04-29T16:42:22.548Z,16.14
2023-04-29T16:45:31.466Z,16.29
2023-04-29T16:48:39.977Z,16.59
2023-04-29T16:51:50.612Z,16.98
2023-04-29T16:55:01.421Z,18.62
2023-04-29T16:58:10.095Z,19.19
2023-04-29T17:01:19.709Z,18.58
2023-04-29T17:04:28.616Z,16.93
2023-04-29T17:07:38.671Z,16.42
2023-04-29T17:10:47.231Z,16.08
2023-04-29T17:13:56.484Z,15.99
2023-04-29T17:17:05.321Z,15.91
2023-04-29T17:20:14.716Z,15.91
2023-04-29T17:23:24.604Z,15.84
2023-04-29T17:26:33.304Z,15.47
2023-04-29T17:29:42.031Z,15.30
2023-04-29T17:32:50.638Z,15.20
2023-04-29T17:36:01.220Z,15.08
2023-04-29T17:39:12.465Z,14.96
2023-04-29T17:42:21.045Z,14.85
2023-04-29T17:45:29.644Z,14.70
2023-04-29T17:48:38.597Z,14.45
2023-04-29T17:51:47.277Z,14.42
2023-04-29T17:54:57.062Z,14.34
2023-04-29T17:58:05.713Z,14.24
2023-04-29T18:01:14.673Z,14.17
2023-04-29T18:04:23.232Z,14.04
2023-04-29T18:07:31.803Z,13.93
2023-04-29T18:10:42.117Z,13.91
2023-04-29T18:13:53.477Z,13.83
2023-04-29T18:17:02.376Z,13.77
2023-04-29T18:20:12.944Z,13.61
2023-04-29T18:23:22.563Z,13.56
2023-04-29T18:26:33.101Z,13.56
2023-04-29T18:29:42.114Z,13.39
2023-04-29T18:32:50.693Z,13.38
2023-04-29T18:35:59.314Z,13.35
2023-04-29T18:39:08.319Z,13.23
2023-04-29T18:42:18.705Z,13.16
2023-04-29T18:45:27.235Z,13.07
2023-04-29T18:48:36.601Z,13.06
2023-04-29T18:51:46.692Z,12.99
2023-04-29T18:54:55.224Z,12.94
2023-04-29T18:58:05.685Z,12.86
2023-04-29T19:01:14.260Z,12.77
2023-04-29T19:04:23.213Z,12.67
2023-04-29T19:07:32.242Z,12.67
2023-04-29T19:10:41.024Z,12.69
2023-04-29T19:13:51.325Z,12.64
2023-04-29T19:16:59.877Z,12.69
2023-04-29T19:20:10.221Z,12.64
2023-04-29T19:23:19.347Z,12.51
2023-04-29T19:26:29.051Z,12.39
2023-04-29T19:29:38.961Z,12.28
2023-04-29T19:32:47.943Z,12.34
2023-04-29T19:35:56.505Z,12.32
2023-04-29T19:39:05.130Z,12.26
2023-04-29T19:42:13.659Z,12.34
2023-04-29T19:45:24.088Z,12.05
2023-04-29T19:48:32.883Z,12.12
2023-04-29T19:51:44.515Z,11.82
2023-04-29T19:54:53.740Z,11.80
2023-04-29T19:58:02.266Z,11.82
2023-04-29T20:01:12.348Z,11.76
2023-04-29T20:04:22.156Z,11.77
2023-04-29T20:07:31.325Z,11.75
2023-04-29T20:10:41.235Z,11.73
2023-04-29T20:13:50.371Z,11.76
2023-04-29T20:17:01.507Z,11.84
2023-04-29T20:20:11.180Z,11.81
2023-04-29T20:23:20.241Z,11.83
2023-04-29T20:26:29.310Z,11.80
2023-04-29T20:29:38.459Z,11.81
2023-04-29T20:32:48.785Z,11.89
2023-04-29T20:36:05.491Z,11.82
2023-04-29T20:39:14.915Z,11.78
2023-04-29T20:42:23.851Z,11.66
2023-04-29T20:45:33.144Z,11.59
2023-04-29T20:48:47.574Z,11.57
2023-04-29T20:51:56.722Z,11.56
2023-04-29T20:55:06.449Z,11.53
2023-04-29T20:58:16.514Z,11.48
2023-04-29T21:01:25.139Z,11.42
2023-04-29T21:04:35.483Z,11.38
2023-04-29T21:07:44.185Z,11.55
2023-04-29T21:10:53.136Z,11.38
2023-04-29T21:14:01.766Z,11.23
2023-04-29T21:17:11.438Z,11.23
2023-04-29T21:20:22.133Z,11.14
2023-04-29T21:23:32.460Z,11.05
2023-04-29T21:26:41.142Z,11.06
2023-04-29T21:29:49.804Z,11.17
2023-04-29T21:32:58.556Z,11.17
2023-04-29T21:36:09.342Z,11.14
2023-04-29T21:39:23.662Z,11.03
2023-04-29T21:42:33.249Z,10.95
2023-04-29T21:45:43.120Z,10.94
2023-04-29T21:48:53.448Z,10.85
2023-04-29T21:52:03.655Z,10.84
2023-04-29T21:55:12.433Z,10.88
2023-04-29T21:58:21.054Z,10.92
2023-04-29T22:01:48.848Z,11.08
2023-04-29T22:04:57.841Z,11.04
2023-04-29T22:08:09.075Z,10.97
2023-04-29T22:11:19.658Z,10.95
2023-04-29T22:14:28.226Z,10.91
2023-04-29T22:17:37.986Z,10.84
2023-04-29T22:20:46.778Z,10.78
2023-04-29T22:23:57.217Z,10.87
2023-04-29T22:27:06.198Z,10.85
2023-04-29T22:30:15.039Z,10.82
2023-04-29T22:33:23.695Z,10.88
2023-04-29T22:36:33.135Z,10.94
2023-04-29T22:39:43.096Z,10.94
2023-04-29T22:42:51.717Z,10.94
2023-04-29T22:46:01.096Z,10.80
2023-04-29T22:49:09.801Z,10.68
2023-04-29T22:52:18.435Z,10.49
2023-04-29T22:55:28.328Z,10.50
2023-04-29T22:58:36.955Z,10.42
2023-04-29T23:01:46.245Z,10.41
2023-04-29T23:04:56.108Z,10.40
2023-04-29T23:08:05.401Z,10.42
2023-04-29T23:11:15.312Z,10.43
2023-04-29T23:14:24.196Z,10.48
2023-04-29T23:17:33.892Z,10.45
2023-04-29T23:20:42.622Z,10.38
2023-04-29T23:23:51.089Z,10.28
2023-04-29T23:27:01.258Z,10.27
2023-04-29T23:30:10.824Z,10.33
2023-04-29T23:33:19.449Z,10.36
2023-04-29T23:36:28.410Z,10.56
2023-04-29T23:39:37.124Z,10.58
2023-04-29T23:42:47.567Z,10.48
2023-04-29T23:45:56.691Z,10.45
2023-04-29T23:49:05.520Z,10.50
2023-04-29T23:52:14.219Z,10.48
2023-04-29T23:55:22.940Z,10.52
2023-04-29T23:58:32.938Z,10.57
